Time,TemperatureF,DewpointF,PressureIn,WindDirection,WindDirectionDegrees,WindSpeedMPH,WindSpeedGustMPH,Humidity,HourlyPrecipIn,Conditions,Clouds,dailyrainin,SoftwareType,DateUTC
2013-03-09 00:13:00,46.8,32.0,30.16,ESE,121,3.0,8.0,57,0.00,,,0.00,weatherlink.com 1.10,2013-03-09 06:13:00,
2013-03-09 00:28:00,46.5,32.0,30.16,South,170,0.0,9.0,58,0.00,,,0.00,weatherlink.com 1.10,2013-03-09 06:28:00,
2013-03-09 00:43:00,46.3,32.0,30.15,SSE,164,5.0,6.0,59,0.00,,,0.00,weatherlink.com 1.10,2013-03-09 06:43:00,
2013-03-09 00:58:00,46.1,32.0,30.15,SE,126,3.0,6.0,59,0.00,,,0.00,weatherlink.com 1.10,2013-03-09 06:58:00,
2013-03-09 01:13:00,46.1,32.0,30.14,SE,142,3.0,7.0,59,0.00,,,0.00,weatherlink.com 1.10,2013-03-09 07:13:00,
2013-03-09 01:28:00,46.1,32.0,30.14,SE,126,5.0,7.0,59,0.00,,,0.00,weatherlink.com 1.10,2013-03-09 07:28:00,
2013-03-09 01:43:00,46.1,32.0,30.13,SE,136,3.0,7.0,58,0.00,,,0.00,weatherlink.com 1.10,2013-03-09 07:43:00,
2013-03-09 01:58:00,46.1,32.0,30.13,SE,144,2.0,7.0,58,0.00,,,0.00,weatherlink.com 1.10,2013-03-09 07:58:00,
2013-03-09 02:13:00,46.1,32.0,30.12,SE,138,1.0,7.0,58,0.00,,,0.00,weatherlink.com 1.10,2013-03-09 08:13:00,
2013-03-09 02:28:00,45.9,32.0,30.11,SSE,164,4.0,7.0,58,0.00,,,0.00,weatherlink.com 1.10,2013-03-09 08:28:00,
2013-03-09 02:43:00,45.9,32.0,30.10,SE,144,1.0,6.0,58,0.00,,,0.00,weatherlink.com 1.10,2013-03-09 08:43:00,
2013-03-09 02:58:00,45.8,32.0,30.09,SE,146,1.0,7.0,58,0.00,,,0.00,weatherlink.com 1.10,2013-03-09 08:58:00,
2013-03-09 03:13:00,45.7,31.0,30.09,ESE,113,1.0,5.0,58,0.00,,,0.00,weatherlink.com 1.10,2013-03-09 09:13:00,
2013-03-09 03:28:00,45.7,31.0,30.09,SSE,153,3.0,7.0,57,0.00,,,0.00,weatherlink.com 1.10,2013-03-09 09:28:00,
2013-03-09 03:43:00,45.9,31.0,30.09,WSW,238,0.0,10.0,56,0.00,,,0.00,weatherlink.com 1.10,2013-03-09 09:43:00,
2013-03-09 03:58:00,46.0,31.0,30.09,SSE,165,3.0,9.0,56,0.00,,,0.00,weatherlink.com 1.10,2013-03-09 09:58:00,
2013-03-09 04:13:00,45.9,31.0,30.09,SE,146,2.0,7.0,57,0.00,,,0.00,weatherlink.com 1.10,2013-03-09 10:13:00,
2013-03-09 04:28:00,45.8,31.0,30.09,South,173,2.0,6.0,57,0.00,,,0.00,weatherlink.com 1.10,2013-03-09 10:28:00,
2013-03-09 04:43:00,45.6,32.0,30.09,SSE,157,3.0,9.0,59,0.00,,,0.00,weatherlink.com 1.10,2013-03-09 10:43:00,
2013-03-09 04:58:00,44.9,32.0,30.09,SSE,161,4.0,7.0,62,0.00,,,0.00,weatherlink.com 1.10,2013-03-09 10:58:00,
2013-03-09 05:13:00,44.7,33.0,30.09,SSE,161,0.0,6.0,63,0.00,,,0.00,weatherlink.com 1.10,2013-03-09 11:13:00,
2013-03-09 05:29:00,44.3,34.0,30.09,SSE,148,2.0,9.0,66,0.00,,,0.00,weatherlink.com 1.10,2013-03-09 11:29:00,
2013-03-09 05:44:00,44.2,33.0,30.09,SE,138,1.0,6.0,66,0.00,,,0.00,weatherlink.com 1.10,2013-03-09 11:44:00,
2013-03-09 05:59:00,44.1,33.0,30.09,SE,144,4.0,7.0,66,0.00,,,0.00,weatherlink.com 1.10,2013-03-09 11:59:00,
2013-03-09 06:14:00,43.0,35.0,30.09,SSE,165,2.0,6.0,74,0.02,,,0.02,weatherlink.com 1.10,2013-03-09 12:14:00,
2013-03-09 06:29:00,41.9,36.0,30.09,SE,136,2.0,5.0,79,0.03,,,0.03,weatherlink.com 1.10,2013-03-09 12:29:00,
2013-03-09 06:44:00,41.1,36.0,30.08,SSE,151,3.0,7.0,83,0.05,,,0.05,weatherlink.com 1.10,2013-03-09 12:44:00,
2013-03-09 06:59:00,40.7,36.0,30.09,ESE,118,0.0,8.0,84,0.07,,,0.07,weatherlink.com 1.10,2013-03-09 12:59:00,
2013-03-09 07:14:00,40.4,37.0,30.09,SE,138,3.0,6.0,86,0.07,,,0.09,weatherlink.com 1.10,2013-03-09 13:14:00,
2013-03-09 07:29:00,40.3,37.0,30.10,SSE,165,2.0,3.0,87,0.07,,,0.10,weatherlink.com 1.10,2013-03-09 13:29:00,
2013-03-09 07:44:00,40.3,37.0,30.10,SE,135,3.0,4.0,88,0.07,,,0.12,weatherlink.com 1.10,2013-03-09 13:44:00,
2013-03-09 07:59:00,40.3,37.0,30.10,SE,132,1.0,4.0,88,0.06,,,0.13,weatherlink.com 1.10,2013-03-09 13:59:00,
2013-03-09 08:14:00,40.5,37.0,30.09,SE,140,2.0,6.0,88,0.05,,,0.14,weatherlink.com 1.10,2013-03-09 14:14:00,
2013-03-09 08:29:00,40.4,37.0,30.07,SE,140,3.0,7.0,88,0.04,,,0.14,weatherlink.com 1.10,2013-03-09 14:29:00,
2013-03-09 08:44:00,40.5,37.0,30.08,SSE,167,2.0,8.0,88,0.03,,,0.15,weatherlink.com 1.10,2013-03-09 14:44:00,
2013-03-09 08:59:00,40.6,37.0,30.08,South,171,3.0,9.0,88,0.03,,,0.16,weatherlink.com 1.10,2013-03-09 14:59:00,
2013-03-09 09:14:00,40.4,38.0,30.07,SE,136,4.0,6.0,89,0.04,,,0.18,weatherlink.com 1.10,2013-03-09 15:14:00,
2013-03-09 09:29:00,40.7,38.0,30.06,SSE,161,2.0,9.0,89,0.05,,,0.19,weatherlink.com 1.10,2013-03-09 15:29:00,
2013-03-09 09:44:00,40.9,38.0,30.06,SSE,151,2.0,8.0,89,0.05,,,0.20,weatherlink.com 1.10,2013-03-09 15:44:00,
2013-03-09 09:59:00,41.0,38.0,30.05,SSE,152,4.0,8.0,89,0.05,,,0.21,weatherlink.com 1.10,2013-03-09 15:59:00,
2013-03-09 10:14:00,41.1,38.0,30.04,SSE,166,3.0,9.0,89,0.03,,,0.21,weatherlink.com 1.10,2013-03-09 16:14:00,
2013-03-09 10:29:00,40.9,38.0,30.02,SSW,212,7.0,8.0,89,0.02,,,0.21,weatherlink.com 1.10,2013-03-09 16:29:00,
2013-03-09 10:44:00,41.1,38.0,30.02,SSE,160,2.0,7.0,89,0.01,,,0.21,weatherlink.com 1.10,2013-03-09 16:44:00,
2013-03-09 10:59:00,41.6,39.0,30.00,South,171,6.0,9.0,89,0.00,,,0.21,weatherlink.com 1.10,2013-03-09 16:59:00,
2013-03-09 11:14:00,42.3,39.0,30.00,ESE,120,4.0,7.0,89,0.00,,,0.21,weatherlink.com 1.10,2013-03-09 17:14:00,
2013-03-09 11:29:00,44.3,41.0,29.98,SSE,158,3.0,12.0,87,0.00,,,0.21,weatherlink.com 1.10,2013-03-09 17:29:00,
2013-03-09 11:44:00,46.4,41.0,29.97,SSE,163,4.0,14.0,81,0.00,,,0.21,weatherlink.com 1.10,2013-03-09 17:44:00,
2013-03-09 11:59:00,48.2,42.0,29.96,SE,132,4.0,12.0,80,0.00,,,0.21,weatherlink.com 1.10,2013-03-09 17:59:00,
2013-03-09 12:15:00,51.0,42.0,29.94,SE,144,4.0,11.0,71,0.00,,,0.21,weatherlink.com 1.10,2013-03-09 18:15:00,
2013-03-09 12:30:00,52.9,41.0,29.94,SSE,156,11.0,14.0,64,0.00,,,0.21,weatherlink.com 1.10,2013-03-09 18:30:00,
2013-03-09 12:45:00,54.1,40.0,29.92,South,190,7.0,13.0,60,0.00,,,0.21,weatherlink.com 1.10,2013-03-09 18:45:00,
2013-03-09 13:00:00,55.2,40.0,29.91,SE,128,3.0,13.0,57,0.00,,,0.21,weatherlink.com 1.10,2013-03-09 19:00:00,
2013-03-09 13:15:00,56.9,39.0,29.89,South,169,9.0,15.0,52,0.00,,,0.21,weatherlink.com 1.10,2013-03-09 19:15:00,
2013-03-09 13:30:00,56.4,40.0,29.88,SSE,150,10.0,15.0,54,0.00,,,0.21,weatherlink.com 1.10,2013-03-09 19:30:00,
2013-03-09 13:45:00,58.0,41.0,29.86,SSE,168,9.0,15.0,53,0.00,,,0.21,weatherlink.com 1.10,2013-03-09 19:45:00,
2013-03-09 14:00:00,58.9,42.0,29.86,South,172,7.0,13.0,53,0.00,,,0.21,weatherlink.com 1.10,2013-03-09 20:00:00,
2013-03-09 14:15:00,59.2,40.0,29.84,SE,145,4.0,18.0,50,0.00,,,0.21,weatherlink.com 1.10,2013-03-09 20:15:00,
2013-03-09 14:30:00,59.7,41.0,29.83,ESE,119,11.0,19.0,50,0.00,,,0.21,weatherlink.com 1.10,2013-03-09 20:30:00,
2013-03-09 14:45:00,60.7,41.0,29.81,SE,144,5.0,13.0,48,0.00,,,0.21,weatherlink.com 1.10,2013-03-09 20:45:00,
2013-03-09 15:00:00,61.9,42.0,29.81,South,173,8.0,11.0,48,0.00,,,0.21,weatherlink.com 1.10,2013-03-09 21:00:00,
2013-03-09 15:15:00,62.8,42.0,29.80,SE,133,8.0,12.0,46,0.00,,,0.21,weatherlink.com 1.10,2013-03-09 21:15:00,
2013-03-09 15:30:00,63.2,42.0,29.80,ESE,123,3.0,11.0,46,0.00,,,0.21,weatherlink.com 1.10,2013-03-09 21:30:00,
2013-03-09 15:45:00,63.9,42.0,29.79,SE,138,4.0,10.0,45,0.00,,,0.21,weatherlink.com 1.10,2013-03-09 21:45:00,
2013-03-09 16:00:00,64.7,43.0,29.78,SE,132,5.0,10.0,45,0.00,,,0.21,weatherlink.com 1.10,2013-03-09 22:00:00,
2013-03-09 16:15:00,65.7,43.0,29.77,SE,145,1.0,8.0,44,0.00,,,0.21,weatherlink.com 1.10,2013-03-09 22:15:00,
2013-03-09 16:32:00,67.5,39.0,29.77,SSE,168,3.0,13.0,36,0.00,,,0.21,weatherlink.com 1.10,2013-03-09 22:32:00,
2013-03-09 16:46:00,68.7,38.0,29.77,South,169,1.0,11.0,32,0.00,,,0.21,weatherlink.com 1.10,2013-03-09 22:46:00,
2013-03-09 17:01:00,68.5,37.0,29.77,SSE,163,4.0,13.0,31,0.00,,,0.21,weatherlink.com 1.10,2013-03-09 23:01:00,
2013-03-09 17:16:00,67.9,37.0,29.77,South,175,2.0,11.0,32,0.00,,,0.21,weatherlink.com 1.10,2013-03-09 23:16:00,
2013-03-09 17:31:00,67.4,36.0,29.77,SSE,155,0.0,10.0,32,0.00,,,0.21,weatherlink.com 1.10,2013-03-09 23:31:00,
2013-03-09 17:46:00,67.0,36.0,29.77,SSE,164,6.0,12.0,32,0.00,,,0.21,weatherlink.com 1.10,2013-03-09 23:46:00,
2013-03-09 18:01:00,66.8,37.0,29.77,South,191,4.0,8.0,33,0.00,,,0.21,weatherlink.com 1.10,2013-03-10 00:01:00,
2013-03-09 18:16:00,66.1,38.0,29.78,SE,138,5.0,7.0,36,0.00,,,0.21,weatherlink.com 1.10,2013-03-10 00:16:00,
2013-03-09 18:31:00,65.4,38.0,29.78,South,171,6.0,15.0,37,0.00,,,0.21,weatherlink.com 1.10,2013-03-10 00:31:00,
2013-03-09 18:46:00,65.2,39.0,29.77,South,172,2.0,13.0,38,0.00,,,0.21,weatherlink.com 1.10,2013-03-10 00:46:00,
2013-03-09 19:01:00,64.6,38.0,29.77,South,179,3.0,14.0,38,0.00,,,0.21,weatherlink.com 1.10,2013-03-10 01:01:00,
2013-03-09 19:16:00,64.4,38.0,29.77,South,184,5.0,12.0,38,0.00,,,0.21,weatherlink.com 1.10,2013-03-10 01:16:00,
2013-03-09 19:31:00,64.0,38.0,29.77,SSE,167,5.0,14.0,39,0.00,,,0.21,weatherlink.com 1.10,2013-03-10 01:31:00,
2013-03-09 19:46:00,63.4,38.0,29.77,SSE,149,3.0,13.0,39,0.00,,,0.21,weatherlink.com 1.10,2013-03-10 01:46:00,
2013-03-09 20:01:00,62.9,38.0,29.77,SSE,163,4.0,13.0,40,0.00,,,0.21,weatherlink.com 1.10,2013-03-10 02:01:00,
2013-03-09 20:16:00,62.5,38.0,29.76,South,184,3.0,10.0,41,0.00,,,0.21,weatherlink.com 1.10,2013-03-10 02:16:00,
2013-03-09 20:31:00,62.1,38.0,29.76,SE,135,2.0,9.0,41,0.00,,,0.21,weatherlink.com 1.10,2013-03-10 02:31:00,
2013-03-09 20:46:00,61.8,37.0,29.77,SSW,196,5.0,9.0,40,0.00,,,0.21,weatherlink.com 1.10,2013-03-10 02:46:00,
2013-03-09 21:01:00,61.4,37.0,29.77,South,184,5.0,9.0,40,0.00,,,0.21,weatherlink.com 1.10,2013-03-10 03:01:00,
2013-03-09 21:16:00,61.3,37.0,29.77,SSE,154,1.0,8.0,40,0.00,,,0.21,weatherlink.com 1.10,2013-03-10 03:16:00,
2013-03-09 21:31:00,61.3,36.0,29.78,South,174,1.0,7.0,39,0.00,,,0.21,weatherlink.com 1.10,2013-03-10 03:31:00,
2013-03-09 21:46:00,61.4,35.0,29.77,South,174,5.0,7.0,38,0.00,,,0.21,weatherlink.com 1.10,2013-03-10 03:46:00,
2013-03-09 22:01:00,61.9,35.0,29.76,South,171,5.0,7.0,37,0.00,,,0.21,weatherlink.com 1.10,2013-03-10 04:01:00,
2013-03-09 22:16:00,62.3,35.0,29.77,SW,222,2.0,10.0,36,0.00,,,0.21,weatherlink.com 1.10,2013-03-10 04:16:00,
2013-03-09 22:31:00,62.5,35.0,29.77,SSE,167,12.0,12.0,36,0.00,,,0.21,weatherlink.com 1.10,2013-03-10 04:31:00,
2013-03-09 22:46:00,62.3,35.0,29.77,SSE,150,6.0,10.0,36,0.00,,,0.21,weatherlink.com 1.10,2013-03-10 04:46:00,
2013-03-09 23:01:00,62.2,35.0,29.76,SE,141,7.0,9.0,36,0.00,,,0.21,weatherlink.com 1.10,2013-03-10 05:01:00,
2013-03-09 23:16:00,61.9,37.0,29.75,South,183,4.0,11.0,40,0.00,,,0.21,weatherlink.com 1.10,2013-03-10 05:16:00,
2013-03-09 23:31:00,60.3,39.0,29.75,SSW,192,2.0,11.0,46,0.01,,,0.22,weatherlink.com 1.10,2013-03-10 05:31:00,
2013-03-09 23:46:00,59.1,41.0,29.75,SW,217,1.0,8.0,51,0.01,,,0.22,weatherlink.com 1.10,2013-03-10 05:46:00,